Aviation Digital Data Service (ADDS)

Output produced by METARs form (0043 UTC 25 April 2019)
found at http://www.aviationweather.gov/metar/data/
 
METAR text: EKBI 250020Z AUTO 10011KT 9999 NCD 12/08 Q1005
Conditions at: EKBI (BILLUND AIRPORT , DK) observed 0020 UTC 25 April 2019
Temperature: 12.0°C (54°F)
Dewpoint: 8.0°C (46°F) [RH = 76%]
Pressure (altimeter): 29.68 inches Hg (1005.0 mb)
Winds: from the E (100 degrees) at 13 MPH (11 knots; 5.7 m/s)
Visibility: 6 or more miles (10+ km)
Ceiling: at least 12,000 feet AGL
Clouds: sky clear below 12,000 feet AGL
Weather: no significant weather observed at this time

METAR text: EKBI 242350Z AUTO 10012KT 9999 NCD 12/08 Q1005
Conditions at: EKBI (BILLUND AIRPORT , DK) observed 2350 UTC 24 April 2019
Temperature: 12.0°C (54°F)
Dewpoint: 8.0°C (46°F) [RH = 76%]
Pressure (altimeter): 29.68 inches Hg (1005.0 mb)
Winds: from the E (100 degrees) at 14 MPH (12 knots; 6.2 m/s)
Visibility: 6 or more miles (10+ km)
Ceiling: at least 12,000 feet AGL
Clouds: sky clear below 12,000 feet AGL
Weather: no significant weather observed at this time

METAR text: EKBI 242320Z AUTO 09014KT 9999 NCD 12/08 Q1005
Conditions at: EKBI (BILLUND AIRPORT , DK) observed 2320 UTC 24 April 2019
Temperature: 12.0°C (54°F)
Dewpoint: 8.0°C (46°F) [RH = 76%]
Pressure (altimeter): 29.68 inches Hg (1005.0 mb)
Winds: from the E (90 degrees) at 16 MPH (14 knots; 7.2 m/s)
Visibility: 6 or more miles (10+ km)
Ceiling: at least 12,000 feet AGL
Clouds: sky clear below 12,000 feet AGL
Weather: no significant weather observed at this time

METAR text: EKBI 242250Z AUTO 09014G26KT 9999 NCD 12/08 Q1005
Conditions at: EKBI (BILLUND AIRPORT , DK) observed 2250 UTC 24 April 2019
Temperature: 12.0°C (54°F)
Dewpoint: 8.0°C (46°F) [RH = 76%]
Pressure (altimeter): 29.68 inches Hg (1005.0 mb)
Winds: from the E (90 degrees) at 16 MPH (14 knots; 7.2 m/s)
gusting to 30 MPH (26 knots; 13.4 m/s)
Visibility: 6 or more miles (10+ km)
Ceiling: at least 12,000 feet AGL
Clouds: sky clear below 12,000 feet AGL
Weather: no significant weather observed at this time

METAR text: EKBI 242220Z AUTO 09013KT 9999 BKN130/// BKN150/// 12/08 Q1005
Conditions at: EKBI (BILLUND AIRPORT , DK) observed 2220 UTC 24 April 2019
Temperature: 12.0°C (54°F)
Dewpoint: 8.0°C (46°F) [RH = 76%]
Pressure (altimeter): 29.68 inches Hg (1005.0 mb)
Winds: from the E (90 degrees) at 15 MPH (13 knots; 6.7 m/s)
Visibility: 6 or more miles (10+ km)
Ceiling: 13000 feet AGL
Clouds: broken clouds at 13000 feet AGL
broken clouds at 15000 feet AGL
Weather: no significant weather observed at this time

METAR text: EKBI 242150Z AUTO 10011KT 9999 SCT130/// 12/08 Q1006
Conditions at: EKBI (BILLUND AIRPORT , DK) observed 2150 UTC 24 April 2019
Temperature: 12.0°C (54°F)
Dewpoint: 8.0°C (46°F) [RH = 76%]
Pressure (altimeter): 29.70 inches Hg (1006.0 mb)
Winds: from the E (100 degrees) at 13 MPH (11 knots; 5.7 m/s)
Visibility: 6 or more miles (10+ km)
Ceiling: at least 12,000 feet AGL
Clouds: scattered clouds at 13000 feet AGL
Weather: no significant weather observed at this time

METAR text: EKBI 242120Z AUTO 10011KT 9999 FEW130/// 12/08 Q1006
Conditions at: EKBI (BILLUND AIRPORT , DK) observed 2120 UTC 24 April 2019
Temperature: 12.0°C (54°F)
Dewpoint: 8.0°C (46°F) [RH = 76%]
Pressure (altimeter): 29.70 inches Hg (1006.0 mb)
Winds: from the E (100 degrees) at 13 MPH (11 knots; 5.7 m/s)
Visibility: 6 or more miles (10+ km)
Ceiling: at least 12,000 feet AGL
Clouds: few clouds at 13000 feet AGL
Weather: no significant weather observed at this time

METAR text: EKBI 242050Z AUTO 10011KT 9999 NCD 13/08 Q1006
Conditions at: EKBI (BILLUND AIRPORT , DK) observed 2050 UTC 24 April 2019
Temperature: 13.0°C (55°F)
Dewpoint: 8.0°C (46°F) [RH = 72%]
Pressure (altimeter): 29.70 inches Hg (1006.0 mb)
Winds: from the E (100 degrees) at 13 MPH (11 knots; 5.7 m/s)
Visibility: 6 or more miles (10+ km)
Ceiling: at least 12,000 feet AGL
Clouds: sky clear below 12,000 feet AGL
Weather: no significant weather observed at this time

METAR text: EKBI 242020Z AUTO 10012KT 9999 NCD 13/08 Q1006
Conditions at: EKBI (BILLUND AIRPORT , DK) observed 2020 UTC 24 April 2019
Temperature: 13.0°C (55°F)
Dewpoint: 8.0°C (46°F) [RH = 72%]
Pressure (altimeter): 29.70 inches Hg (1006.0 mb)
Winds: from the E (100 degrees) at 14 MPH (12 knots; 6.2 m/s)
Visibility: 6 or more miles (10+ km)
Ceiling: at least 12,000 feet AGL
Clouds: sky clear below 12,000 feet AGL
Weather: no significant weather observed at this time

METAR text: EKBI 241950Z AUTO 10011KT 9999 NCD 13/08 Q1006
Conditions at: EKBI (BILLUND AIRPORT , DK) observed 1950 UTC 24 April 2019
Temperature: 13.0°C (55°F)
Dewpoint: 8.0°C (46°F) [RH = 72%]
Pressure (altimeter): 29.70 inches Hg (1006.0 mb)
Winds: from the E (100 degrees) at 13 MPH (11 knots; 5.7 m/s)
Visibility: 6 or more miles (10+ km)
Ceiling: at least 12,000 feet AGL
Clouds: sky clear below 12,000 feet AGL
Weather: no significant weather observed at this time

METAR text: EKBI 241920Z AUTO 09012KT 9999 NCD 13/08 Q1006
Conditions at: EKBI (BILLUND AIRPORT , DK) observed 1920 UTC 24 April 2019
Temperature: 13.0°C (55°F)
Dewpoint: 8.0°C (46°F) [RH = 72%]
Pressure (altimeter): 29.70 inches Hg (1006.0 mb)
Winds: from the E (90 degrees) at 14 MPH (12 knots; 6.2 m/s)
Visibility: 6 or more miles (10+ km)
Ceiling: at least 12,000 feet AGL
Clouds: sky clear below 12,000 feet AGL
Weather: no significant weather observed at this time

METAR text: EKBI 241850Z AUTO 09012KT 9999 NCD 13/08 Q1006
Conditions at: EKBI (BILLUND AIRPORT , DK) observed 1850 UTC 24 April 2019
Temperature: 13.0°C (55°F)
Dewpoint: 8.0°C (46°F) [RH = 72%]
Pressure (altimeter): 29.70 inches Hg (1006.0 mb)
Winds: from the E (90 degrees) at 14 MPH (12 knots; 6.2 m/s)
Visibility: 6 or more miles (10+ km)
Ceiling: at least 12,000 feet AGL
Clouds: sky clear below 12,000 feet AGL
Weather: no significant weather observed at this time

METAR text: EKBI 241820Z AUTO 09012KT 9999 NCD 14/08 Q1006
Conditions at: EKBI (BILLUND AIRPORT , DK) observed 1820 UTC 24 April 2019
Temperature: 14.0°C (57°F)
Dewpoint: 8.0°C (46°F) [RH = 67%]
Pressure (altimeter): 29.70 inches Hg (1006.0 mb)
Winds: from the E (90 degrees) at 14 MPH (12 knots; 6.2 m/s)
Visibility: 6 or more miles (10+ km)
Ceiling: at least 12,000 feet AGL
Clouds: sky clear below 12,000 feet AGL
Weather: no significant weather observed at this time

METAR text: EKBI 241750Z AUTO 10013KT 9999 NCD 15/09 Q1006
Conditions at: EKBI (BILLUND AIRPORT , DK) observed 1750 UTC 24 April 2019
Temperature: 15.0°C (59°F)
Dewpoint: 9.0°C (48°F) [RH = 67%]
Pressure (altimeter): 29.70 inches Hg (1006.0 mb)
Winds: from the E (100 degrees) at 15 MPH (13 knots; 6.7 m/s)
Visibility: 6 or more miles (10+ km)
Ceiling: at least 12,000 feet AGL
Clouds: sky clear below 12,000 feet AGL
Weather: no significant weather observed at this time

METAR text: EKBI 241720Z AUTO 09014KT 9999 NCD 15/09 Q1005
Conditions at: EKBI (BILLUND AIRPORT , DK) observed 1720 UTC 24 April 2019
Temperature: 15.0°C (59°F)
Dewpoint: 9.0°C (48°F) [RH = 67%]
Pressure (altimeter): 29.68 inches Hg (1005.0 mb)
Winds: from the E (90 degrees) at 16 MPH (14 knots; 7.2 m/s)
Visibility: 6 or more miles (10+ km)
Ceiling: at least 12,000 feet AGL
Clouds: sky clear below 12,000 feet AGL
Weather: no significant weather observed at this time

METAR text: EKBI 241650Z AUTO 10015KT 9999 SCT140/// 15/09 Q1005
Conditions at: EKBI (BILLUND AIRPORT , DK) observed 1650 UTC 24 April 2019
Temperature: 15.0°C (59°F)
Dewpoint: 9.0°C (48°F) [RH = 67%]
Pressure (altimeter): 29.68 inches Hg (1005.0 mb)
Winds: from the E (100 degrees) at 17 MPH (15 knots; 7.7 m/s)
Visibility: 6 or more miles (10+ km)
Ceiling: at least 12,000 feet AGL
Clouds: scattered clouds at 14000 feet AGL
Weather: no significant weather observed at this time

METAR text: EKBI 241620Z AUTO 10013KT 9999 BKN120/// 16/09 Q1006
Conditions at: EKBI (BILLUND AIRPORT , DK) observed 1620 UTC 24 April 2019
Temperature: 16.0°C (61°F)
Dewpoint: 9.0°C (48°F) [RH = 63%]
Pressure (altimeter): 29.70 inches Hg (1006.0 mb)
Winds: from the E (100 degrees) at 15 MPH (13 knots; 6.7 m/s)
Visibility: 6 or more miles (10+ km)
Ceiling: 12000 feet AGL
Clouds: broken clouds at 12000 feet AGL
Weather: no significant weather observed at this time

METAR text: EKBI 241550Z AUTO 10013KT 9999 BKN095/// 15/09 Q1005
Conditions at: EKBI (BILLUND AIRPORT , DK) observed 1550 UTC 24 April 2019
Temperature: 15.0°C (59°F)
Dewpoint: 9.0°C (48°F) [RH = 67%]
Pressure (altimeter): 29.68 inches Hg (1005.0 mb)
Winds: from the E (100 degrees) at 15 MPH (13 knots; 6.7 m/s)
Visibility: 6 or more miles (10+ km)
Ceiling: 9500 feet AGL
Clouds: broken clouds at 9500 feet AGL
Weather: no significant weather observed at this time

METAR text: EKBI 241520Z AUTO 10014KT 9999 FEW100/// BKN150/// 15/08 Q1006
Conditions at: EKBI (BILLUND AIRPORT , DK) observed 1520 UTC 24 April 2019
Temperature: 15.0°C (59°F)
Dewpoint: 8.0°C (46°F) [RH = 63%]
Pressure (altimeter): 29.70 inches Hg (1006.0 mb)
Winds: from the E (100 degrees) at 16 MPH (14 knots; 7.2 m/s)
Visibility: 6 or more miles (10+ km)
Ceiling: 15000 feet AGL
Clouds: few clouds at 10000 feet AGL
broken clouds at 15000 feet AGL
Weather: no significant weather observed at this time

METAR text: EKBI 241450Z AUTO 10014KT 070V130 9999 FEW150/// FEW190/// 15/09 Q1006
Conditions at: EKBI (BILLUND AIRPORT , DK) observed 1450 UTC 24 April 2019
Temperature: 15.0°C (59°F)
Dewpoint: 9.0°C (48°F) [RH = 67%]
Pressure (altimeter): 29.70 inches Hg (1006.0 mb)
Winds: from the E (100 degrees) at 16 MPH (14 knots; 7.2 m/s)
Visibility: 6 or more miles (10+ km)
Ceiling: at least 12,000 feet AGL
Clouds: few clouds at 15000 feet AGL
few clouds at 19000 feet AGL
Weather: no significant weather observed at this time

METAR text: EKBI 241420Z AUTO 10016KT 9999 FEW140/// BKN190/// 16/09 Q1006
Conditions at: EKBI (BILLUND AIRPORT , DK) observed 1420 UTC 24 April 2019
Temperature: 16.0°C (61°F)
Dewpoint: 9.0°C (48°F) [RH = 63%]
Pressure (altimeter): 29.70 inches Hg (1006.0 mb)
Winds: from the E (100 degrees) at 18 MPH (16 knots; 8.2 m/s)
Visibility: 6 or more miles (10+ km)
Ceiling: 19000 feet AGL
Clouds: few clouds at 14000 feet AGL
broken clouds at 19000 feet AGL
Weather: no significant weather observed at this time

METAR text: EKBI 241350Z AUTO 10016KT 9999 FEW130/// BKN160/// 16/09 Q1006
Conditions at: EKBI (BILLUND AIRPORT , DK) observed 1350 UTC 24 April 2019
Temperature: 16.0°C (61°F)
Dewpoint: 9.0°C (48°F) [RH = 63%]
Pressure (altimeter): 29.70 inches Hg (1006.0 mb)
Winds: from the E (100 degrees) at 18 MPH (16 knots; 8.2 m/s)
Visibility: 6 or more miles (10+ km)
Ceiling: 16000 feet AGL
Clouds: few clouds at 13000 feet AGL
broken clouds at 16000 feet AGL
Weather: no significant weather observed at this time

METAR text: EKBI 241320Z AUTO 10015KT 9999 FEW073/// BKN140/// 14/08 Q1006
Conditions at: EKBI (BILLUND AIRPORT , DK) observed 1320 UTC 24 April 2019
Temperature: 14.0°C (57°F)
Dewpoint: 8.0°C (46°F) [RH = 67%]
Pressure (altimeter): 29.70 inches Hg (1006.0 mb)
Winds: from the E (100 degrees) at 17 MPH (15 knots; 7.7 m/s)
Visibility: 6 or more miles (10+ km)
Ceiling: 14000 feet AGL
Clouds: few clouds at 7300 feet AGL
broken clouds at 14000 feet AGL
Weather: no significant weather observed at this time

METAR text: EKBI 241250Z AUTO 11014KT 9999 FEW023/// BKN054/// 13/09 Q1006
Conditions at: EKBI (BILLUND AIRPORT , DK) observed 1250 UTC 24 April 2019
Temperature: 13.0°C (55°F)
Dewpoint: 9.0°C (48°F) [RH = 77%]
Pressure (altimeter): 29.70 inches Hg (1006.0 mb)
Winds: from the ESE (110 degrees) at 16 MPH (14 knots; 7.2 m/s)
Visibility: 6 or more miles (10+ km)
Ceiling: 5400 feet AGL
Clouds: few clouds at 2300 feet AGL
broken clouds at 5400 feet AGL
Weather: no significant weather observed at this time

METAR text: EKBI 241220Z AUTO 10014KT 9999 BKN024/// BKN083/// 14/09 Q1006
Conditions at: EKBI (BILLUND AIRPORT , DK) observed 1220 UTC 24 April 2019
Temperature: 14.0°C (57°F)
Dewpoint: 9.0°C (48°F) [RH = 72%]
Pressure (altimeter): 29.70 inches Hg (1006.0 mb)
Winds: from the E (100 degrees) at 16 MPH (14 knots; 7.2 m/s)
Visibility: 6 or more miles (10+ km)
Ceiling: 2400 feet AGL
Clouds: broken clouds at 2400 feet AGL
broken clouds at 8300 feet AGL
Weather: no significant weather observed at this time

METAR text: EKBI 241150Z AUTO 11014KT 070V130 9999 BKN024/// 14/08 Q1006
Conditions at: EKBI (BILLUND AIRPORT , DK) observed 1150 UTC 24 April 2019
Temperature: 14.0°C (57°F)
Dewpoint: 8.0°C (46°F) [RH = 67%]
Pressure (altimeter): 29.70 inches Hg (1006.0 mb)
Winds: from the ESE (110 degrees) at 16 MPH (14 knots; 7.2 m/s)
Visibility: 6 or more miles (10+ km)
Ceiling: 2400 feet AGL
Clouds: broken clouds at 2400 feet AGL
Weather: no significant weather observed at this time

METAR text: EKBI 241120Z AUTO 11016KT 9999 OVC025/// 14/08 Q1006
Conditions at: EKBI (BILLUND AIRPORT , DK) observed 1120 UTC 24 April 2019
Temperature: 14.0°C (57°F)
Dewpoint: 8.0°C (46°F) [RH = 67%]
Pressure (altimeter): 29.70 inches Hg (1006.0 mb)
Winds: from the ESE (110 degrees) at 18 MPH (16 knots; 8.2 m/s)
Visibility: 6 or more miles (10+ km)
Ceiling: 2500 feet AGL
Clouds: overcast cloud deck at 2500 feet AGL
Weather: no significant weather observed at this time

METAR text: EKBI 241050Z AUTO 11016KT 9999 FEW026/// SCT081/// BKN120/// 14/08 Q1005
Conditions at: EKBI (BILLUND AIRPORT , DK) observed 1050 UTC 24 April 2019
Temperature: 14.0°C (57°F)
Dewpoint: 8.0°C (46°F) [RH = 67%]
Pressure (altimeter): 29.68 inches Hg (1005.0 mb)
Winds: from the ESE (110 degrees) at 18 MPH (16 knots; 8.2 m/s)
Visibility: 6 or more miles (10+ km)
Ceiling: 12000 feet AGL
Clouds: few clouds at 2600 feet AGL
scattered clouds at 8100 feet AGL
broken clouds at 12000 feet AGL
Weather: no significant weather observed at this time

METAR text: EKBI 241020Z AUTO 10014KT 9999 -RA OVC073/// 12/09 Q1005
Conditions at: EKBI (BILLUND AIRPORT , DK) observed 1020 UTC 24 April 2019
Temperature: 12.0°C (54°F)
Dewpoint: 9.0°C (48°F) [RH = 82%]
Pressure (altimeter): 29.68 inches Hg (1005.0 mb)
Winds: from the E (100 degrees) at 16 MPH (14 knots; 7.2 m/s)
Visibility: 6 or more miles (10+ km)
Ceiling: 7300 feet AGL
Clouds: overcast cloud deck at 7300 feet AGL
Weather: -RA  (light rain)

METAR text: EKBI 240950Z AUTO 10014KT 070V140 9999 FEW028/// BKN081/// 13/08 Q1005
Conditions at: EKBI (BILLUND AIRPORT , DK) observed 0950 UTC 24 April 2019
Temperature: 13.0°C (55°F)
Dewpoint: 8.0°C (46°F) [RH = 72%]
Pressure (altimeter): 29.68 inches Hg (1005.0 mb)
Winds: from the E (100 degrees) at 16 MPH (14 knots; 7.2 m/s)
Visibility: 6 or more miles (10+ km)
Ceiling: 8100 feet AGL
Clouds: few clouds at 2800 feet AGL
broken clouds at 8100 feet AGL
Weather: no significant weather observed at this time

METAR text: EKBI 240920Z AUTO 11015KT 080V150 9999 SCT030/// BKN083/// 13/08 Q1006
Conditions at: EKBI (BILLUND AIRPORT , DK) observed 0920 UTC 24 April 2019
Temperature: 13.0°C (55°F)
Dewpoint: 8.0°C (46°F) [RH = 72%]
Pressure (altimeter): 29.70 inches Hg (1006.0 mb)
Winds: from the ESE (110 degrees) at 17 MPH (15 knots; 7.7 m/s)
Visibility: 6 or more miles (10+ km)
Ceiling: 8300 feet AGL
Clouds: scattered clouds at 3000 feet AGL
broken clouds at 8300 feet AGL
Weather: no significant weather observed at this time

METAR text: EKBI 240850Z AUTO 11014KT 9999 BKN042/// BKN080/// BKN120/// 14/07 Q1006
Conditions at: EKBI (BILLUND AIRPORT , DK) observed 0850 UTC 24 April 2019
Temperature: 14.0°C (57°F)
Dewpoint: 7.0°C (45°F) [RH = 63%]
Pressure (altimeter): 29.70 inches Hg (1006.0 mb)
Winds: from the ESE (110 degrees) at 16 MPH (14 knots; 7.2 m/s)
Visibility: 6 or more miles (10+ km)
Ceiling: 4200 feet AGL
Clouds: broken clouds at 4200 feet AGL
broken clouds at 8000 feet AGL
broken clouds at 12000 feet AGL
Weather: no significant weather observed at this time

METAR text: EKBI 240820Z AUTO 10014KT 9999 FEW084/// SCT110/// 13/07 Q1005
Conditions at: EKBI (BILLUND AIRPORT , DK) observed 0820 UTC 24 April 2019
Temperature: 13.0°C (55°F)
Dewpoint: 7.0°C (45°F) [RH = 67%]
Pressure (altimeter): 29.68 inches Hg (1005.0 mb)
Winds: from the E (100 degrees) at 16 MPH (14 knots; 7.2 m/s)
Visibility: 6 or more miles (10+ km)
Ceiling: at least 12,000 feet AGL
Clouds: few clouds at 8400 feet AGL
scattered clouds at 11000 feet AGL
Weather: no significant weather observed at this time

METAR text: EKBI 240750Z AUTO 10016G27KT 070V130 9999 SCT045/// BKN120/// 12/07 Q1005
Conditions at: EKBI (BILLUND AIRPORT , DK) observed 0750 UTC 24 April 2019
Temperature: 12.0°C (54°F)
Dewpoint: 7.0°C (45°F) [RH = 71%]
Pressure (altimeter): 29.68 inches Hg (1005.0 mb)
Winds: from the E (100 degrees) at 18 MPH (16 knots; 8.2 m/s)
gusting to 31 MPH (27 knots; 13.9 m/s)
Visibility: 6 or more miles (10+ km)
Ceiling: 12000 feet AGL
Clouds: scattered clouds at 4500 feet AGL
broken clouds at 12000 feet AGL
Weather: no significant weather observed at this time

METAR text: EKBI 240720Z AUTO 10014KT 9999 BKN046/// 12/07 Q1005
Conditions at: EKBI (BILLUND AIRPORT , DK) observed 0720 UTC 24 April 2019
Temperature: 12.0°C (54°F)
Dewpoint: 7.0°C (45°F) [RH = 71%]
Pressure (altimeter): 29.68 inches Hg (1005.0 mb)
Winds: from the E (100 degrees) at 16 MPH (14 knots; 7.2 m/s)
Visibility: 6 or more miles (10+ km)
Ceiling: 4600 feet AGL
Clouds: broken clouds at 4600 feet AGL
Weather: no significant weather observed at this time

METAR text: EKBI 240650Z AUTO 09014KT 9999 BKN048/// BKN120/// 11/06 Q1005
Conditions at: EKBI (BILLUND AIRPORT , DK) observed 0650 UTC 24 April 2019
Temperature: 11.0°C (52°F)
Dewpoint: 6.0°C (43°F) [RH = 71%]
Pressure (altimeter): 29.68 inches Hg (1005.0 mb)
Winds: from the E (90 degrees) at 16 MPH (14 knots; 7.2 m/s)
Visibility: 6 or more miles (10+ km)
Ceiling: 4800 feet AGL
Clouds: broken clouds at 4800 feet AGL
broken clouds at 12000 feet AGL
Weather: no significant weather observed at this time

METAR text: EKBI 240620Z AUTO 09014KT 9999 BKN050/// BKN120/// 11/06 Q1005
Conditions at: EKBI (BILLUND AIRPORT , DK) observed 0620 UTC 24 April 2019
Temperature: 11.0°C (52°F)
Dewpoint: 6.0°C (43°F) [RH = 71%]
Pressure (altimeter): 29.68 inches Hg (1005.0 mb)
Winds: from the E (90 degrees) at 16 MPH (14 knots; 7.2 m/s)
Visibility: 6 or more miles (10+ km)
Ceiling: 5000 feet AGL
Clouds: broken clouds at 5000 feet AGL
broken clouds at 12000 feet AGL
Weather: no significant weather observed at this time

METAR text: EKBI 240550Z AUTO 09015KT 9999 SCT056/// 11/05 Q1005
Conditions at: EKBI (BILLUND AIRPORT , DK) observed 0550 UTC 24 April 2019
Temperature: 11.0°C (52°F)
Dewpoint: 5.0°C (41°F) [RH = 66%]
Pressure (altimeter): 29.68 inches Hg (1005.0 mb)
Winds: from the E (90 degrees) at 17 MPH (15 knots; 7.7 m/s)
Visibility: 6 or more miles (10+ km)
Ceiling: at least 12,000 feet AGL
Clouds: scattered clouds at 5600 feet AGL
Weather: no significant weather observed at this time

METAR text: EKBI 240520Z AUTO 09013KT 9999 BKN048/// 11/06 Q1005
Conditions at: EKBI (BILLUND AIRPORT , DK) observed 0520 UTC 24 April 2019
Temperature: 11.0°C (52°F)
Dewpoint: 6.0°C (43°F) [RH = 71%]
Pressure (altimeter): 29.68 inches Hg (1005.0 mb)
Winds: from the E (90 degrees) at 15 MPH (13 knots; 6.7 m/s)
Visibility: 6 or more miles (10+ km)
Ceiling: 4800 feet AGL
Clouds: broken clouds at 4800 feet AGL
Weather: no significant weather observed at this time

METAR text: EKBI 240450Z AUTO 09013KT 9999 SCT047/// OVC064/// 10/06 Q1005
Conditions at: EKBI (BILLUND AIRPORT , DK) observed 0450 UTC 24 April 2019
Temperature: 10.0°C (50°F)
Dewpoint: 6.0°C (43°F) [RH = 76%]
Pressure (altimeter): 29.68 inches Hg (1005.0 mb)
Winds: from the E (90 degrees) at 15 MPH (13 knots; 6.7 m/s)
Visibility: 6 or more miles (10+ km)
Ceiling: 6400 feet AGL
Clouds: scattered clouds at 4700 feet AGL
overcast cloud deck at 6400 feet AGL
Weather: no significant weather observed at this time

METAR text: EKBI 240420Z AUTO 09015KT 9999 OVC065/// 10/06 Q1005
Conditions at: EKBI (BILLUND AIRPORT , DK) observed 0420 UTC 24 April 2019
Temperature: 10.0°C (50°F)
Dewpoint: 6.0°C (43°F) [RH = 76%]
Pressure (altimeter): 29.68 inches Hg (1005.0 mb)
Winds: from the E (90 degrees) at 17 MPH (15 knots; 7.7 m/s)
Visibility: 6 or more miles (10+ km)
Ceiling: 6500 feet AGL
Clouds: overcast cloud deck at 6500 feet AGL
Weather: no significant weather observed at this time

METAR text: EKBI 240350Z AUTO 09015KT 9999 OVC069/// 10/07 Q1005
Conditions at: EKBI (BILLUND AIRPORT , DK) observed 0350 UTC 24 April 2019
Temperature: 10.0°C (50°F)
Dewpoint: 7.0°C (45°F) [RH = 82%]
Pressure (altimeter): 29.68 inches Hg (1005.0 mb)
Winds: from the E (90 degrees) at 17 MPH (15 knots; 7.7 m/s)
Visibility: 6 or more miles (10+ km)
Ceiling: 6900 feet AGL
Clouds: overcast cloud deck at 6900 feet AGL
Weather: no significant weather observed at this time

METAR text: EKBI 240320Z AUTO 09014KT 9999 OVC069/// 10/08 Q1006
Conditions at: EKBI (BILLUND AIRPORT , DK) observed 0320 UTC 24 April 2019
Temperature: 10.0°C (50°F)
Dewpoint: 8.0°C (46°F) [RH = 87%]
Pressure (altimeter): 29.70 inches Hg (1006.0 mb)
Winds: from the E (90 degrees) at 16 MPH (14 knots; 7.2 m/s)
Visibility: 6 or more miles (10+ km)
Ceiling: 6900 feet AGL
Clouds: overcast cloud deck at 6900 feet AGL
Weather: no significant weather observed at this time

METAR text: EKBI 240250Z AUTO 09015KT 9999 BKN049/// 10/08 Q1006
Conditions at: EKBI (BILLUND AIRPORT , DK) observed 0250 UTC 24 April 2019
Temperature: 10.0°C (50°F)
Dewpoint: 8.0°C (46°F) [RH = 87%]
Pressure (altimeter): 29.70 inches Hg (1006.0 mb)
Winds: from the E (90 degrees) at 17 MPH (15 knots; 7.7 m/s)
Visibility: 6 or more miles (10+ km)
Ceiling: 4900 feet AGL
Clouds: broken clouds at 4900 feet AGL
Weather: no significant weather observed at this time

METAR text: EKBI 240220Z AUTO 08015KT 9999 SCT048/// BKN075/// 10/08 Q1006
Conditions at: EKBI (BILLUND AIRPORT , DK) observed 0220 UTC 24 April 2019
Temperature: 10.0°C (50°F)
Dewpoint: 8.0°C (46°F) [RH = 87%]
Pressure (altimeter): 29.70 inches Hg (1006.0 mb)
Winds: from the E (80 degrees) at 17 MPH (15 knots; 7.7 m/s)
Visibility: 6 or more miles (10+ km)
Ceiling: 7500 feet AGL
Clouds: scattered clouds at 4800 feet AGL
broken clouds at 7500 feet AGL
Weather: no significant weather observed at this time

METAR text: EKBI 240150Z AUTO 07016KT 9999 OVC049/// 10/07 Q1006
Conditions at: EKBI (BILLUND AIRPORT , DK) observed 0150 UTC 24 April 2019
Temperature: 10.0°C (50°F)
Dewpoint: 7.0°C (45°F) [RH = 82%]
Pressure (altimeter): 29.70 inches Hg (1006.0 mb)
Winds: from the ENE (70 degrees) at 18 MPH (16 knots; 8.2 m/s)
Visibility: 6 or more miles (10+ km)
Ceiling: 4900 feet AGL
Clouds: overcast cloud deck at 4900 feet AGL
Weather: no significant weather observed at this time

METAR text: EKBI 240120Z AUTO 07016KT 9999 OVC043/// 09/08 Q1007
Conditions at: EKBI (BILLUND AIRPORT , DK) observed 0120 UTC 24 April 2019
Temperature: 9.0°C (48°F)
Dewpoint: 8.0°C (46°F) [RH = 93%]
Pressure (altimeter): 29.73 inches Hg (1007.0 mb)
Winds: from the ENE (70 degrees) at 18 MPH (16 knots; 8.2 m/s)
Visibility: 6 or more miles (10+ km)
Ceiling: 4300 feet AGL
Clouds: overcast cloud deck at 4300 feet AGL
Weather: no significant weather observed at this time

METAR text: EKBI 240050Z AUTO 07015KT 9999 OVC039/// 09/07 Q1007
Conditions at: EKBI (BILLUND AIRPORT , DK) observed 0050 UTC 24 April 2019
Temperature: 9.0°C (48°F)
Dewpoint: 7.0°C (45°F) [RH = 87%]
Pressure (altimeter): 29.73 inches Hg (1007.0 mb)
Winds: from the ENE (70 degrees) at 17 MPH (15 knots; 7.7 m/s)
Visibility: 6 or more miles (10+ km)
Ceiling: 3900 feet AGL
Clouds: overcast cloud deck at 3900 feet AGL
Weather: no significant weather observed at this time

METAR text: EKBI 240020Z AUTO 06014KT 9999 OVC041/// 09/07 Q1007
Conditions at: EKBI (BILLUND AIRPORT , DK) observed 0020 UTC 24 April 2019
Temperature: 9.0°C (48°F)
Dewpoint: 7.0°C (45°F) [RH = 87%]
Pressure (altimeter): 29.73 inches Hg (1007.0 mb)
Winds: from the ENE (60 degrees) at 16 MPH (14 knots; 7.2 m/s)
Visibility: 6 or more miles (10+ km)
Ceiling: 4100 feet AGL
Clouds: overcast cloud deck at 4100 feet AGL
Weather: no significant weather observed at this time

METAR text: EKBI 232350Z 07011KT 7000 -RA SCT039CB BKN050 09/07 Q1008
Conditions at: EKBI (BILLUND AIRPORT , DK) observed 2350 UTC 23 April 2019
Temperature: 9.0°C (48°F)
Dewpoint: 7.0°C (45°F) [RH = 87%]
Pressure (altimeter): 29.76 inches Hg (1008.0 mb)
Winds: from the ENE (70 degrees) at 13 MPH (11 knots; 5.7 m/s)
Visibility: 4 miles ( 7 km)
Ceiling: 5000 feet AGL
Clouds: scattered clouds at 3900 feet AGL
broken clouds at 5000 feet AGL
Weather: -RA  (light rain)

METAR text: EKBI 232320Z 08011KT 9999 -SHRA BKN055CB 10/07 Q1009
Conditions at: EKBI (BILLUND AIRPORT , DK) observed 2320 UTC 23 April 2019
Temperature: 10.0°C (50°F)
Dewpoint: 7.0°C (45°F) [RH = 82%]
Pressure (altimeter): 29.79 inches Hg (1009.0 mb)
Winds: from the E (80 degrees) at 13 MPH (11 knots; 5.7 m/s)
Visibility: 6 or more miles (10+ km)
Ceiling: 5500 feet AGL
Clouds: broken clouds at 5500 feet AGL
Weather: -SHRA  (light rain showers)

METAR text: EKBI 232250Z 07012KT 9999 -SHRA BKN051CB 10/08 Q1009
Conditions at: EKBI (BILLUND AIRPORT , DK) observed 2250 UTC 23 April 2019
Temperature: 10.0°C (50°F)
Dewpoint: 8.0°C (46°F) [RH = 87%]
Pressure (altimeter): 29.79 inches Hg (1009.0 mb)
Winds: from the ENE (70 degrees) at 14 MPH (12 knots; 6.2 m/s)
Visibility: 6 or more miles (10+ km)
Ceiling: 5100 feet AGL
Clouds: broken clouds at 5100 feet AGL
Weather: -SHRA  (light rain showers)

METAR text: EKBI 232220Z 07015KT 9999 -SHRA BKN045CB 10/08 Q1009
Conditions at: EKBI (BILLUND AIRPORT , DK) observed 2220 UTC 23 April 2019
Temperature: 10.0°C (50°F)
Dewpoint: 8.0°C (46°F) [RH = 87%]
Pressure (altimeter): 29.79 inches Hg (1009.0 mb)
Winds: from the ENE (70 degrees) at 17 MPH (15 knots; 7.7 m/s)
Visibility: 6 or more miles (10+ km)
Ceiling: 4500 feet AGL
Clouds: broken clouds at 4500 feet AGL
Weather: -SHRA  (light rain showers)

METAR text: EKBI 232150Z 08018KT 9999 -SHRA BKN053CB 10/08 Q1009
Conditions at: EKBI (BILLUND AIRPORT , DK) observed 2150 UTC 23 April 2019
Temperature: 10.0°C (50°F)
Dewpoint: 8.0°C (46°F) [RH = 87%]
Pressure (altimeter): 29.79 inches Hg (1009.0 mb)
Winds: from the E (80 degrees) at 21 MPH (18 knots; 9.3 m/s)
Visibility: 6 or more miles (10+ km)
Ceiling: 5300 feet AGL
Clouds: broken clouds at 5300 feet AGL
Weather: -SHRA  (light rain showers)

METAR text: EKBI 232120Z AUTO 09022KT 9999 -RA OVC051/// 12/06 Q1009
Conditions at: EKBI (BILLUND AIRPORT , DK) observed 2120 UTC 23 April 2019
Temperature: 12.0°C (54°F)
Dewpoint: 6.0°C (43°F) [RH = 67%]
Pressure (altimeter): 29.79 inches Hg (1009.0 mb)
Winds: from the E (90 degrees) at 25 MPH (22 knots; 11.3 m/s)
Visibility: 6 or more miles (10+ km)
Ceiling: 5100 feet AGL
Clouds: overcast cloud deck at 5100 feet AGL
Weather: -RA  (light rain)

METAR text: EKBI 232050Z 08019KT CAVOK 13/02 Q1009
Conditions at: EKBI (BILLUND AIRPORT , DK) observed 2050 UTC 23 April 2019
Temperature: 13.0°C (55°F)
Dewpoint: 2.0°C (36°F) [RH = 47%]
Pressure (altimeter): 29.79 inches Hg (1009.0 mb)
Winds: from the E (80 degrees) at 22 MPH (19 knots; 9.8 m/s)
Visibility: 6 or more miles (10+ km)
Ceiling: ceiling and visibility are OK
Clouds: unknown
Weather: no significant weather observed at this time

METAR text: EKBI 232020Z 08018KT CAVOK 13/01 Q1009
Conditions at: EKBI (BILLUND AIRPORT , DK) observed 2020 UTC 23 April 2019
Temperature: 13.0°C (55°F)
Dewpoint: 1.0°C (34°F) [RH = 44%]
Pressure (altimeter): 29.79 inches Hg (1009.0 mb)
Winds: from the E (80 degrees) at 21 MPH (18 knots; 9.3 m/s)
Visibility: 6 or more miles (10+ km)
Ceiling: ceiling and visibility are OK
Clouds: unknown
Weather: no significant weather observed at this time

METAR text: EKBI 231950Z 08018KT CAVOK 13/01 Q1009
Conditions at: EKBI (BILLUND AIRPORT , DK) observed 1950 UTC 23 April 2019
Temperature: 13.0°C (55°F)
Dewpoint: 1.0°C (34°F) [RH = 44%]
Pressure (altimeter): 29.79 inches Hg (1009.0 mb)
Winds: from the E (80 degrees) at 21 MPH (18 knots; 9.3 m/s)
Visibility: 6 or more miles (10+ km)
Ceiling: ceiling and visibility are OK
Clouds: unknown
Weather: no significant weather observed at this time

METAR text: EKBI 231920Z 08018KT CAVOK 13/00 Q1009
Conditions at: EKBI (BILLUND AIRPORT , DK) observed 1920 UTC 23 April 2019
Temperature: 13.0°C (55°F)
Dewpoint: 0.0°C (32°F) [RH = 41%]
Pressure (altimeter): 29.79 inches Hg (1009.0 mb)
Winds: from the E (80 degrees) at 21 MPH (18 knots; 9.3 m/s)
Visibility: 6 or more miles (10+ km)
Ceiling: ceiling and visibility are OK
Clouds: unknown
Weather: no significant weather observed at this time

METAR text: EKBI 231850Z 08018KT CAVOK 13/00 Q1009
Conditions at: EKBI (BILLUND AIRPORT , DK) observed 1850 UTC 23 April 2019
Temperature: 13.0°C (55°F)
Dewpoint: 0.0°C (32°F) [RH = 41%]
Pressure (altimeter): 29.79 inches Hg (1009.0 mb)
Winds: from the E (80 degrees) at 21 MPH (18 knots; 9.3 m/s)
Visibility: 6 or more miles (10+ km)
Ceiling: ceiling and visibility are OK
Clouds: unknown
Weather: no significant weather observed at this time

METAR text: EKBI 231820Z 08021KT CAVOK 14/M00 Q1009
Conditions at: EKBI (BILLUND AIRPORT , DK) observed 1820 UTC 23 April 2019
Temperature: 14.0°C (57°F)
Dewpoint: 0.0°C (32°F) [RH = 38%]
Pressure (altimeter): 29.79 inches Hg (1009.0 mb)
Winds: from the E (80 degrees) at 24 MPH (21 knots; 10.8 m/s)
Visibility: 6 or more miles (10+ km)
Ceiling: ceiling and visibility are OK
Clouds: unknown
Weather: no significant weather observed at this time

METAR text: EKBI 231750Z 08020G31KT CAVOK 15/M01 Q1009
Conditions at: EKBI (BILLUND AIRPORT , DK) observed 1750 UTC 23 April 2019
Temperature: 15.0°C (59°F)
Dewpoint: -1.0°C (30°F) [RH = 33%]
Pressure (altimeter): 29.79 inches Hg (1009.0 mb)
Winds: from the E (80 degrees) at 23 MPH (20 knots; 10.3 m/s)
gusting to 36 MPH (31 knots; 15.9 m/s)
Visibility: 6 or more miles (10+ km)
Ceiling: ceiling and visibility are OK
Clouds: unknown
Weather: no significant weather observed at this time

METAR text: EKBI 231720Z 09023G35KT CAVOK 15/M02 Q1009
Conditions at: EKBI (BILLUND AIRPORT , DK) observed 1720 UTC 23 April 2019
Temperature: 15.0°C (59°F)
Dewpoint: -2.0°C (28°F) [RH = 31%]
Pressure (altimeter): 29.79 inches Hg (1009.0 mb)
Winds: from the E (90 degrees) at 26 MPH (23 knots; 11.8 m/s)
gusting to 40 MPH (35 knots; 18.0 m/s)
Visibility: 6 or more miles (10+ km)
Ceiling: ceiling and visibility are OK
Clouds: unknown
Weather: no significant weather observed at this time

METAR text: EKBI 231650Z AUTO 09024G36KT 9999 NCD 15/M01 Q1010
Conditions at: EKBI (BILLUND AIRPORT , DK) observed 1650 UTC 23 April 2019
Temperature: 15.0°C (59°F)
Dewpoint: -1.0°C (30°F) [RH = 33%]
Pressure (altimeter): 29.82 inches Hg (1010.0 mb)
Winds: from the E (90 degrees) at 28 MPH (24 knots; 12.3 m/s)
gusting to 41 MPH (36 knots; 18.5 m/s)
Visibility: 6 or more miles (10+ km)
Ceiling: at least 12,000 feet AGL
Clouds: sky clear below 12,000 feet AGL
Weather: no significant weather observed at this time

METAR text: EKBI 231620Z AUTO 09025G40KT 9999 NCD 16/M01 Q1010
Conditions at: EKBI (BILLUND AIRPORT , DK) observed 1620 UTC 23 April 2019
Temperature: 16.0°C (61°F)
Dewpoint: -1.0°C (30°F) [RH = 31%]
Pressure (altimeter): 29.82 inches Hg (1010.0 mb)
Winds: from the E (90 degrees) at 29 MPH (25 knots; 12.9 m/s)
gusting to 46 MPH (40 knots; 20.6 m/s)
Visibility: 6 or more miles (10+ km)
Ceiling: at least 12,000 feet AGL
Clouds: sky clear below 12,000 feet AGL
Weather: no significant weather observed at this time

METAR text: EKBI 231550Z AUTO 09028G40KT 9999 SCT033/// 16/M01 Q1010
Conditions at: EKBI (BILLUND AIRPORT , DK) observed 1550 UTC 23 April 2019
Temperature: 16.0°C (61°F)
Dewpoint: -1.0°C (30°F) [RH = 31%]
Pressure (altimeter): 29.82 inches Hg (1010.0 mb)
Winds: from the E (90 degrees) at 32 MPH (28 knots; 14.4 m/s)
gusting to 46 MPH (40 knots; 20.6 m/s)
Visibility: 6 or more miles (10+ km)
Ceiling: at least 12,000 feet AGL
Clouds: scattered clouds at 3300 feet AGL
Weather: no significant weather observed at this time

METAR text: EKBI 231520Z AUTO 09025G43KT 060V120 9999 FEW030/// 16/M01 Q1010
Conditions at: EKBI (BILLUND AIRPORT , DK) observed 1520 UTC 23 April 2019
Temperature: 16.0°C (61°F)
Dewpoint: -1.0°C (30°F) [RH = 31%]
Pressure (altimeter): 29.82 inches Hg (1010.0 mb)
Winds: from the E (90 degrees) at 29 MPH (25 knots; 12.9 m/s)
gusting to 49 MPH (43 knots; 22.1 m/s)
Visibility: 6 or more miles (10+ km)
Ceiling: at least 12,000 feet AGL
Clouds: few clouds at 3000 feet AGL
Weather: no significant weather observed at this time

METAR text: EKBI 231450Z AUTO 09026G38KT 9999 FEW030/// 16/M01 Q1011
Conditions at: EKBI (BILLUND AIRPORT , DK) observed 1450 UTC 23 April 2019
Temperature: 16.0°C (61°F)
Dewpoint: -1.0°C (30°F) [RH = 31%]
Pressure (altimeter): 29.85 inches Hg (1011.0 mb)
Winds: from the E (90 degrees) at 30 MPH (26 knots; 13.4 m/s)
gusting to 44 MPH (38 knots; 19.5 m/s)
Visibility: 6 or more miles (10+ km)
Ceiling: at least 12,000 feet AGL
Clouds: few clouds at 3000 feet AGL
Weather: no significant weather observed at this time

METAR text: EKBI 231420Z AUTO 09025G37KT 070V140 9999 FEW030/// 16/M00 Q1011
Conditions at: EKBI (BILLUND AIRPORT , DK) observed 1420 UTC 23 April 2019
Temperature: 16.0°C (61°F)
Dewpoint: 0.0°C (32°F) [RH = 34%]
Pressure (altimeter): 29.85 inches Hg (1011.0 mb)
Winds: from the E (90 degrees) at 29 MPH (25 knots; 12.9 m/s)
gusting to 43 MPH (37 knots; 19.0 m/s)
Visibility: 6 or more miles (10+ km)
Ceiling: at least 12,000 feet AGL
Clouds: few clouds at 3000 feet AGL
Weather: no significant weather observed at this time

METAR text: EKBI 231350Z AUTO 09027G43KT 9999 SCT025/// 16/M00 Q1011
Conditions at: EKBI (BILLUND AIRPORT , DK) observed 1350 UTC 23 April 2019
Temperature: 16.0°C (61°F)
Dewpoint: 0.0°C (32°F) [RH = 34%]
Pressure (altimeter): 29.85 inches Hg (1011.0 mb)
Winds: from the E (90 degrees) at 31 MPH (27 knots; 13.9 m/s)
gusting to 49 MPH (43 knots; 22.1 m/s)
Visibility: 6 or more miles (10+ km)
Ceiling: at least 12,000 feet AGL
Clouds: scattered clouds at 2500 feet AGL
Weather: no significant weather observed at this time

METAR text: EKBI 231320Z AUTO 09025G37KT 9999 FEW029/// FEW031/// 16/00 Q1012
Conditions at: EKBI (BILLUND AIRPORT , DK) observed 1320 UTC 23 April 2019
Temperature: 16.0°C (61°F)
Dewpoint: 0.0°C (32°F) [RH = 34%]
Pressure (altimeter): 29.88 inches Hg (1012.0 mb)
Winds: from the E (90 degrees) at 29 MPH (25 knots; 12.9 m/s)
gusting to 43 MPH (37 knots; 19.0 m/s)
Visibility: 6 or more miles (10+ km)
Ceiling: at least 12,000 feet AGL
Clouds: few clouds at 2900 feet AGL
few clouds at 3100 feet AGL
Weather: no significant weather observed at this time

METAR text: EKBI 231250Z AUTO 10025G37KT 9999 FEW031/// 16/01 Q1012
Conditions at: EKBI (BILLUND AIRPORT , DK) observed 1250 UTC 23 April 2019
Temperature: 16.0°C (61°F)
Dewpoint: 1.0°C (34°F) [RH = 36%]
Pressure (altimeter): 29.88 inches Hg (1012.0 mb)
Winds: from the E (100 degrees) at 29 MPH (25 knots; 12.9 m/s)
gusting to 43 MPH (37 knots; 19.0 m/s)
Visibility: 6 or more miles (10+ km)
Ceiling: at least 12,000 feet AGL
Clouds: few clouds at 3100 feet AGL
Weather: no significant weather observed at this time

Forecast for: EKBI (BILLUND AIRPORT , DK)
Text: TAF EKBI 242314Z 2500/2524 10012KT CAVOK
Forecast period: 0000 to 0500 UTC 25 April 2019
Forecast type: FROM: standard forecast or significant change
Winds: from the E (100 degrees) at 14 MPH (12 knots; 6.2 m/s)
Visibility: 6 or more miles 10+ km)
Ceiling: unknown
Clouds: missing
Weather: NSW  (no significant weather)
Text: BECMG 2505/2508 21008KT BKN010
Forecast period: 0500 to 0800 UTC 25 April 2019
Forecast type: BECOMING: Conditions expected to become as follows by 0800 UTC 25 April 2019
Winds: from the SSW (210 degrees) at 9 MPH (8 knots; 4.1 m/s)
Visibility: 6 or more miles 10+ km)
Ceiling: 1000 feet AGL
Clouds: broken clouds at 1000 feet AGL
Weather: NSW  (no significant weather)
Text: BECMG 2508/2511 SCT030
Forecast period: 0800 UTC 25 April 2019 to 0000 UTC 26 April 2019
Forecast type: BECOMING: Conditions expected to become as follows by 1100 UTC 25 April 2019
Winds: from the SSW (210 degrees) at 9 MPH (8 knots; 4.1 m/s)
Visibility: 6 or more miles 10+ km)
Ceiling: at least 12,000 feet AGL
Clouds: scattered clouds at 3000 feet AGL
Weather: NSW  (no significant weather)